Time;durP1;ratioP1;P1;durP2;ratioP2;P2;SDS_P1;SDS_P2;PMS_P1;PMS_P2;Temp;Humidity;BMP_temperature;BMP_pressure;BME280_temperature;BME280_humidity;BME280_pressure;Samples;Min_cycle;Max_cycle;Signal;HPM_P1;HPM_P2
2021/05/02 00:02:03;;;;;;;27.67;24.80;;;16.90;89.10;24.40;98085.00;;;;5031393;28;20435;-72
2021/05/02 00:04:29;;;;;;;29.10;26.00;;;16.90;89.00;24.40;98089.00;;;;5031392;28;20981;-72
2021/05/02 00:06:55;;;;;;;28.73;25.63;;;16.90;89.10;24.50;98078.00;;;;5031449;28;20202;-72
2021/05/02 00:09:21;;;;;;;29.73;26.63;;;16.90;89.10;24.30;98083.00;;;;5032546;28;20189;-72
2021/05/02 00:11:46;;;;;;;29.13;26.20;;;16.90;89.10;24.40;98080.00;;;;5019874;28;20205;-73
2021/05/02 00:14:12;;;;;;;30.60;27.40;;;16.90;89.10;24.50;98066.00;;;;5055072;28;20227;-74
2021/05/02 00:16:38;;;;;;;29.27;26.27;;;16.90;89.20;24.50;98059.00;;;;5038420;28;20197;-73
2021/05/02 00:19:08;;;;;;;28.80;25.03;;;16.90;89.20;24.30;98046.00;;;;5038690;28;20844;-73
2021/05/02 00:21:34;;;;;;;29.23;26.23;;;16.90;89.10;24.30;98059.00;;;;5038616;28;20177;-74
2021/05/02 00:23:59;;;;;;;28.67;25.70;;;16.90;89.20;24.30;98039.00;;;;5054085;28;20414;-74
2021/05/02 00:26:26;;;;;;;29.40;26.30;;;16.90;89.20;24.40;98040.00;;;;5038524;28;20675;-73
2021/05/02 00:28:52;;;;;;;30.10;26.90;;;16.90;89.20;24.40;98038.00;;;;5038469;28;20662;-73
2021/05/02 00:31:18;;;;;;;30.40;27.23;;;16.90;89.20;24.30;98032.00;;;;5055338;28;20442;-73
2021/05/02 00:33:44;;;;;;;29.73;26.63;;;16.90;89.20;24.50;98021.00;;;;5055695;28;20844;-73
2021/05/02 00:36:09;;;;;;;31.07;27.80;;;16.90;89.10;24.50;98028.00;;;;5038158;28;20475;-73
2021/05/02 00:38:40;;;;;;;30.17;27.07;;;16.90;89.30;24.50;98037.00;;;;5054994;28;20485;-74
2021/05/02 00:41:29;;;;;;;31.03;27.90;;;16.80;89.30;24.40;98008.00;;;;5071622;28;20178;-74
2021/05/02 00:44:08;;;;;;;29.63;26.53;;;16.80;89.20;24.40;98005.00;;;;5054406;28;20486;-73
2021/05/02 00:47:02;;;;;;;29.33;26.20;;;16.80;89.20;24.30;97994.00;;;;5056181;28;20467;-73
2021/05/02 00:49:48;;;;;;;29.90;26.63;;;16.90;89.40;24.30;97986.00;;;;5066859;28;20414;-73
2021/05/02 00:52:30;;;;;;;30.47;27.20;;;16.80;89.20;24.30;97980.00;;;;5072629;28;20483;-73
2021/05/02 00:55:06;;;;;;;30.17;26.90;;;16.80;89.20;24.30;97973.00;;;;5040592;28;20467;-73
2021/05/02 00:57:53;;;;;;;31.70;28.50;;;16.80;89.20;24.30;97986.00;;;;5055740;28;20462;-73
2021/05/02 01:00:19;;;;;;;31.10;27.80;;;16.80;89.30;24.30;97963.00;;;;5071977;28;20502;-73
2021/05/02 01:02:47;;;;;;;29.77;26.57;;;16.80;89.30;24.40;97969.00;;;;5054428;28;20928;-73
2021/05/02 01:05:12;;;;;;;29.67;26.70;;;16.80;89.30;24.50;97960.00;;;;5038224;28;20465;-73
2021/05/02 01:07:42;;;;;;;30.40;27.20;;;16.80;89.20;24.40;97958.00;;;;5054421;28;20436;-72
2021/05/02 01:10:12;;;;;;;32.50;29.00;;;16.80;89.30;24.30;97951.00;;;;5072208;28;20192;-72
2021/05/02 01:12:43;;;;;;;30.07;26.80;;;16.80;89.30;24.30;97953.00;;;;5070676;28;20951;-73
2021/05/02 01:15:14;;;;;;;29.73;26.63;;;16.80;89.30;24.30;97953.00;;;;5038800;28;20448;-73
2021/05/02 01:17:46;;;;;;;28.43;25.43;;;16.70;89.20;24.30;97937.00;;;;5038049;28;20468;-72
2021/05/02 01:20:15;;;;;;;34.90;27.70;;;16.80;89.30;24.30;97937.00;;;;5054477;28;20450;-72
2021/05/02 01:22:42;;;;;;;30.83;27.57;;;16.70;89.30;24.20;97932.00;;;;5053616;28;20959;-72
2021/05/02 01:25:09;;;;;;;31.60;28.30;;;16.80;89.40;24.30;97937.00;;;;5070697;28;20475;-72
2021/05/02 01:27:35;;;;;;;30.87;27.67;;;16.80;89.40;24.30;97921.00;;;;5054078;28;20467;-72
2021/05/02 01:30:04;;;;;;;29.80;26.73;;;16.70;89.20;24.20;97920.00;;;;5037418;28;20467;-72
2021/05/02 01:32:30;;;;;;;32.07;28.30;;;16.70;89.20;24.20;97909.00;;;;5071754;28;20463;-72
2021/05/02 01:34:56;;;;;;;29.43;26.37;;;16.70;89.30;24.30;97914.00;;;;5053514;28;20551;-72
2021/05/02 01:37:22;;;;;;;31.70;28.30;;;16.80;89.30;24.30;97920.00;;;;5070467;28;20563;-73
2021/05/02 01:39:48;;;;;;;30.17;27.03;;;16.70;89.30;24.20;97914.00;;;;5070043;28;20994;-74
2021/05/02 01:42:14;;;;;;;31.93;28.47;;;16.70;89.30;24.20;97917.00;;;;5070739;28;20193;-73
2021/05/02 01:44:40;;;;;;;28.67;25.60;;;16.70;89.30;24.20;97902.00;;;;5071543;28;21038;-72
2021/05/02 01:47:12;;;;;;;30.23;27.07;;;16.70;89.30;24.30;97906.00;;;;5037102;28;20215;-73
2021/05/02 01:49:57;;;;;;;30.60;26.80;;;16.70;89.30;24.20;97900.00;;;;5037762;28;21000;-72
2021/05/02 01:52:23;;;;;;;30.50;27.30;;;16.70;89.30;24.20;97894.00;;;;5054056;28;20430;-73
2021/05/02 01:54:48;;;;;;;28.43;25.53;;;16.70;89.30;24.20;97896.00;;;;5070400;28;20991;-73
2021/05/02 01:57:29;;;;;;;29.07;25.93;;;16.70;89.30;24.20;97885.00;;;;5037587;28;20455;-73
2021/05/02 01:59:58;;;;;;;27.90;24.97;;;16.70;89.30;24.30;97888.00;;;;5037610;28;20186;-73
2021/05/02 02:02:25;;;;;;;30.70;27.40;;;16.70;89.30;24.20;97885.00;;;;5053883;28;20429;-73
2021/05/02 02:04:55;;;;;;;29.60;25.80;;;16.70;89.30;24.10;97866.00;;;;5054049;28;20460;-74
2021/05/02 02:07:20;;;;;;;29.87;26.67;;;16.70;89.30;24.20;97851.00;;;;5037871;28;20504;-74
2021/05/02 02:09:46;;;;;;;28.60;25.70;;;16.70;89.40;24.10;97831.00;;;;5052980;28;20427;-74
2021/05/02 02:12:12;;;;;;;29.43;26.33;;;16.70;89.30;24.20;97825.00;;;;5069766;28;20691;-73
2021/05/02 02:14:38;;;;;;;30.57;26.90;;;16.70;89.40;24.20;97817.00;;;;5036986;28;20265;-74
2021/05/02 02:17:05;;;;;;;29.37;26.40;;;16.60;89.20;24.30;97830.00;;;;5036660;28;20509;-74
2021/05/02 02:19:31;;;;;;;31.17;27.90;;;16.70;89.30;24.10;97835.00;;;;5036938;28;20438;-73
2021/05/02 02:21:58;;;;;;;30.90;27.67;;;16.70;89.40;24.20;97821.00;;;;5052807;28;20430;-74
2021/05/02 02:24:48;;;;;;;29.23;26.23;;;16.70;89.50;24.20;97827.00;;;;5053191;28;20648;-74
2021/05/02 02:27:14;;;;;;;29.43;26.40;;;16.70;89.50;24.10;97816.00;;;;5054750;28;20459;-73
2021/05/02 02:29:44;;;;;;;28.40;25.43;;;16.70;89.50;24.10;97788.00;;;;5036586;28;20419;-74
2021/05/02 02:32:11;;;;;;;30.50;25.83;;;16.60;89.30;24.10;97791.00;;;;5052006;28;20200;-74
2021/05/02 02:34:47;;;;;;;29.00;25.90;;;16.60;90.10;24.10;97799.00;;;;5053212;28;20429;-74
2021/05/02 02:37:19;;;;;;;27.77;25.00;;;16.60;89.40;24.10;97796.00;;;;5037836;28;20468;-73
2021/05/02 02:39:50;;;;;;;28.50;25.53;;;16.70;89.50;24.10;97783.00;;;;5037190;28;20495;-74
2021/05/02 02:42:17;;;;;;;28.60;25.70;;;16.60;89.40;24.10;97786.00;;;;5036716;28;20453;-74
2021/05/02 02:45:10;;;;;;;28.73;25.80;;;16.60;89.40;24.10;97782.00;;;;5036541;28;20573;-73
2021/05/02 02:47:39;;;;;;;29.10;25.90;;;16.60;89.40;24.10;97779.00;;;;5069630;28;20540;-73
2021/05/02 02:50:11;;;;;;;29.60;26.40;;;16.60;89.40;24.10;97746.00;;;;5035851;28;20820;-73
2021/05/02 02:52:46;;;;;;;26.27;23.47;;;16.60;89.40;24.10;97783.00;;;;5053743;28;20482;-75
2021/05/02 02:55:14;;;;;;;28.40;25.40;;;16.60;89.50;24.10;97794.00;;;;5053367;28;20512;-75
2021/05/02 02:58:03;;;;;;;30.00;26.73;;;16.60;89.50;24.10;97783.00;;;;5036455;28;20522;-74
2021/05/02 03:00:34;;;;;;;28.67;25.67;;;16.60;89.50;24.10;97762.00;;;;5055723;28;20428;-73
2021/05/02 03:03:07;;;;;;;30.37;27.27;;;16.50;89.40;24.00;97755.00;;;;5036477;28;20464;-74
2021/05/02 03:05:33;;;;;;;28.30;25.37;;;16.60;89.50;24.00;97758.00;;;;5068527;28;21018;-74
2021/05/02 03:08:01;;;;;;;27.50;24.70;;;16.60;89.50;24.00;97759.00;;;;5068777;28;20463;-74
2021/05/02 03:10:27;;;;;;;30.80;26.83;;;16.60;89.50;24.00;97755.00;;;;5052579;28;20417;-74
2021/05/02 03:12:53;;;;;;;31.07;27.47;;;16.50;89.50;24.10;97749.00;;;;5035809;28;20429;-74
2021/05/02 03:15:19;;;;;;;26.80;23.80;;;16.60;89.50;24.10;97759.00;;;;5070290;28;20430;-74
2021/05/02 03:17:54;;;;;;;29.73;26.30;;;16.60;89.60;24.10;97755.00;;;;5068813;28;20280;-74
2021/05/02 03:20:20;;;;;;;27.93;25.07;;;16.50;89.50;24.00;97761.00;;;;5053374;28;20192;-74
2021/05/02 03:22:50;;;;;;;28.10;25.23;;;16.60;89.60;24.10;97761.00;;;;5051995;28;20452;-74
2021/05/02 03:25:21;;;;;;;26.77;24.00;;;16.60;90.20;24.20;97760.00;;;;5052601;28;20338;-74
2021/05/02 03:27:51;;;;;;;28.57;25.57;;;16.60;89.60;24.10;97757.00;;;;5069046;28;20418;-74
2021/05/02 03:30:18;;;;;;;27.50;24.60;;;16.60;89.60;24.00;97758.00;;;;5052345;28;20425;-74
2021/05/02 03:32:48;;;;;;;26.80;23.93;;;16.50;89.50;24.10;97748.00;;;;5019032;28;20493;-73
2021/05/02 03:35:15;;;;;;;27.80;25.03;;;16.50;89.60;24.00;97754.00;;;;5035473;28;20446;-73
2021/05/02 03:37:46;;;;;;;28.20;25.27;;;16.60;89.70;24.10;97743.00;;;;5052342;28;20430;-73
2021/05/02 03:40:12;;;;;;;27.20;24.40;;;16.50;89.60;24.10;97752.00;;;;5036544;28;20474;-73
2021/05/02 03:42:38;;;;;;;28.57;25.50;;;16.50;89.60;24.10;97736.00;;;;5052192;28;20790;-73
2021/05/02 03:45:04;;;;;;;26.87;24.07;;;16.50;89.60;24.10;97709.00;;;;5034539;28;20274;-73
2021/05/02 03:47:30;;;;;;;29.93;25.77;;;16.50;89.60;24.10;97736.00;;;;5068250;28;20213;-75
2021/05/02 03:49:56;;;;;;;28.10;25.17;;;16.50;89.60;24.00;97742.00;;;;5068393;28;20955;-74
2021/05/02 03:52:21;;;;;;;28.83;25.83;;;16.50;89.60;24.00;97734.00;;;;5051977;28;20208;-74
2021/05/02 03:54:52;;;;;;;27.43;24.43;;;16.50;89.60;24.10;97736.00;;;;5049990;28;20246;-74
2021/05/02 03:57:18;;;;;;;27.57;24.67;;;16.50;89.70;24.00;97747.00;;;;5052308;28;20205;-75
2021/05/02 03:59:43;;;;;;;26.57;23.77;;;16.50;89.70;24.00;97737.00;;;;5051824;28;20449;-75
2021/05/02 04:02:09;;;;;;;29.23;25.07;;;16.50;89.70;24.00;97746.00;;;;5035053;28;20957;-76
2021/05/02 04:04:35;;;;;;;25.70;23.00;;;16.50;89.70;24.00;97752.00;;;;5051820;28;20208;-76
2021/05/02 04:07:06;;;;;;;26.97;24.10;;;16.50;89.80;24.10;97757.00;;;;5034582;28;20189;-76
2021/05/02 04:09:36;;;;;;;27.07;24.17;;;16.50;89.80;24.00;97741.00;;;;5068555;28;20444;-77
2021/05/02 04:12:03;;;;;;;25.87;23.17;;;16.50;89.80;24.10;97754.00;;;;5068314;28;20418;-77
2021/05/02 04:14:29;;;;;;;26.63;23.50;;;16.50;89.80;24.00;97762.00;;;;5051252;28;20431;-78
2021/05/02 04:17:03;;;;;;;28.00;25.00;;;16.40;89.70;24.10;97771.00;;;;5051208;28;20496;-79
2021/05/02 04:19:29;;;;;;;26.70;23.67;;;16.50;89.90;24.10;97786.00;;;;5052219;28;20177;-78
2021/05/02 04:21:55;;;;;;;26.03;23.13;;;16.40;89.80;23.90;97810.00;;;;5050809;28;20866;-80
2021/05/02 04:24:21;;;;;;;26.70;23.90;;;16.50;89.90;24.10;97825.00;;;;5034969;28;20406;-77
2021/05/02 04:26:49;;;;;;;24.77;22.30;;;16.50;90.00;24.00;97829.00;;;;5067714;28;20197;-77
2021/05/02 04:29:14;;;;;;;27.77;24.87;;;16.50;90.10;24.00;97842.00;;;;5067958;28;20439;-77
2021/05/02 04:31:40;;;;;;;27.27;24.43;;;16.40;90.10;24.20;97845.00;;;;5051737;28;20501;-78
2021/05/02 04:34:06;;;;;;;27.47;24.30;;;16.50;90.20;24.00;97839.00;;;;5067588;28;20178;-77
2021/05/02 04:36:32;;;;;;;29.63;25.00;;;16.50;90.20;24.00;97849.00;;;;5067520;28;20256;-78
2021/05/02 04:38:58;;;;;;;28.80;25.57;;;16.40;90.20;24.00;97855.00;;;;5067955;28;20465;-76
2021/05/02 04:41:24;;;;;;;27.27;24.37;;;16.50;90.30;24.10;97866.00;;;;5051355;28;20188;-78
2021/05/02 04:43:50;;;;;;;27.30;24.50;;;16.50;90.30;24.10;97879.00;;;;5051313;28;20436;-77
2021/05/02 04:46:16;;;;;;;28.83;24.50;;;16.50;90.30;24.10;97883.00;;;;5034688;28;21406;-76
2021/05/02 04:48:42;;;;;;;29.77;24.10;;;16.40;90.20;24.00;97881.00;;;;5035194;28;20258;-77
2021/05/02 04:51:09;;;;;;;27.97;24.37;;;16.40;90.20;24.10;97861.00;;;;5050785;28;20414;-76
2021/05/02 04:53:35;;;;;;;27.17;24.03;;;16.40;90.20;24.10;97891.00;;;;5067996;28;20455;-77
2021/05/02 04:56:00;;;;;;;25.67;23.00;;;16.40;90.20;24.00;97904.00;;;;5018139;28;20461;-76
2021/05/02 04:58:26;;;;;;;28.00;24.40;;;16.40;90.20;24.00;97908.00;;;;5071656;28;20700;-78
2021/05/02 05:00:52;;;;;;;27.13;24.37;;;16.40;90.20;24.00;97897.00;;;;5054062;28;20178;-76
2021/05/02 05:03:17;;;;;;;27.33;24.33;;;16.40;90.20;24.00;97914.00;;;;5054620;28;20280;-77
2021/05/02 05:05:43;;;;;;;28.37;25.30;;;16.40;90.20;24.10;97907.00;;;;5037465;28;20213;-77
2021/05/02 05:08:09;;;;;;;27.37;24.37;;;16.40;90.20;24.10;97904.00;;;;5072665;28;20201;-76
2021/05/02 05:10:35;;;;;;;27.73;24.80;;;16.40;90.20;24.00;97925.00;;;;5054151;28;20439;-76
2021/05/02 05:13:02;;;;;;;26.80;24.00;;;16.40;90.20;24.20;97922.00;;;;5054504;28;20201;-76
2021/05/02 05:15:27;;;;;;;26.23;23.37;;;16.40;90.20;23.90;97933.00;;;;5037910;28;20182;-76
2021/05/02 05:17:53;;;;;;;27.80;24.90;;;16.40;90.20;24.10;97921.00;;;;5071730;28;20888;-76
2021/05/02 05:20:19;;;;;;;27.90;24.40;;;16.40;90.20;24.10;97933.00;;;;5054180;28;20188;-75
2021/05/02 05:22:45;;;;;;;26.13;23.43;;;16.40;90.20;24.10;97927.00;;;;5053952;28;20206;-77
2021/05/02 05:25:11;;;;;;;28.43;25.27;;;16.40;90.20;24.00;97939.00;;;;5037239;28;20517;-77
2021/05/02 05:27:37;;;;;;;24.53;21.93;;;16.30;90.20;24.10;97938.00;;;;5054022;28;20201;-77
2021/05/02 05:30:04;;;;;;;24.30;21.80;;;16.40;90.30;23.90;97958.00;;;;5053877;28;20476;-76
2021/05/02 05:32:29;;;;;;;24.40;21.90;;;16.40;90.30;23.90;97941.00;;;;5054042;28;20197;-77
2021/05/02 05:34:55;;;;;;;23.97;21.47;;;16.40;90.30;24.00;97946.00;;;;5070836;28;20453;-76
2021/05/02 05:37:21;;;;;;;25.53;22.67;;;16.40;90.30;23.90;97948.00;;;;5054336;28;20207;-77
2021/05/02 05:39:48;;;;;;;25.37;22.30;;;16.40;90.30;24.00;97956.00;;;;5053308;28;20231;-76
2021/05/02 05:42:14;;;;;;;23.63;21.20;;;16.40;90.30;24.00;97954.00;;;;5070811;28;20225;-75
2021/05/02 05:44:39;;;;;;;22.00;19.80;;;16.40;90.30;24.00;97966.00;;;;5054022;28;20733;-74
2021/05/02 05:47:05;;;;;;;21.97;18.53;;;16.40;90.30;24.00;97971.00;;;;5087131;28;20204;-76
2021/05/02 05:49:31;;;;;;;19.73;17.63;;;16.30;90.30;24.00;97981.00;;;;5037484;28;20215;-74
2021/05/02 05:51:57;;;;;;;22.77;20.30;;;16.30;90.30;23.80;97977.00;;;;5070850;28;20525;-76
2021/05/02 05:54:23;;;;;;;22.97;18.63;;;16.40;90.30;23.90;97991.00;;;;5037280;28;20224;-75
2021/05/02 05:56:49;;;;;;;20.23;18.13;;;16.40;90.30;24.10;97961.00;;;;5070111;28;20799;-75
2021/05/02 05:59:15;;;;;;;19.90;17.53;;;16.40;90.30;24.00;98003.00;;;;5037249;28;20227;-75
2021/05/02 06:01:41;;;;;;;20.10;17.97;;;16.40;90.40;24.00;98017.00;;;;5053414;28;20455;-76
2021/05/02 06:04:07;;;;;;;19.87;17.30;;;16.40;90.40;23.90;98026.00;;;;5037121;28;20441;-75
2021/05/02 06:06:35;;;;;;;19.80;16.73;;;16.40;90.40;24.00;98010.00;;;;5071206;28;20512;-75
2021/05/02 06:09:01;;;;;;;19.43;17.33;;;16.40;90.40;24.00;98043.00;;;;5053769;28;20181;-76
2021/05/02 06:11:29;;;;;;;19.70;17.50;;;16.30;90.40;24.00;98034.00;;;;5053272;28;20802;-75
2021/05/02 06:13:56;;;;;;;17.80;15.70;;;16.40;90.40;23.70;98035.00;;;;5037108;28;20414;-75
2021/05/02 06:16:21;;;;;;;17.67;15.80;;;16.30;90.40;23.90;98041.00;;;;5053209;28;20450;-75
2021/05/02 06:18:47;;;;;;;18.50;16.50;;;16.30;90.40;23.80;98048.00;;;;5071274;28;20439;-75
2021/05/02 06:21:13;;;;;;;16.13;14.43;;;16.30;90.40;23.80;98041.00;;;;5070822;28;20190;-75
2021/05/02 06:23:39;;;;;;;16.23;14.27;;;16.30;90.40;23.90;98053.00;;;;5069910;28;20193;-74
2021/05/02 06:26:06;;;;;;;16.23;14.50;;;16.30;90.40;24.10;98058.00;;;;5052538;28;20731;-75
2021/05/02 06:28:32;;;;;;;16.27;14.37;;;16.30;90.40;24.10;98059.00;;;;5069436;28;20726;-75
2021/05/02 06:30:57;;;;;;;17.07;15.03;;;16.30;90.40;23.90;98072.00;;;;5069061;28;20538;-75
2021/05/02 06:33:23;;;;;;;15.47;12.83;;;16.30;90.40;24.20;98076.00;;;;5071200;28;20537;-75
2021/05/02 06:35:49;;;;;;;13.90;12.40;;;16.30;90.40;24.20;98078.00;;;;5036111;28;20299;-74
2021/05/02 06:38:15;;;;;;;15.40;13.60;;;16.30;90.40;24.00;98095.00;;;;5035941;28;20558;-75
2021/05/02 06:40:40;;;;;;;12.57;11.27;;;16.30;90.40;24.00;98098.00;;;;5036537;28;20181;-74
2021/05/02 06:43:08;;;;;;;12.83;11.33;;;16.30;90.40;24.10;98105.00;;;;5068569;28;20615;-75
2021/05/02 06:45:33;;;;;;;13.90;12.40;;;16.30;90.40;23.90;98118.00;;;;5069314;28;20205;-74
2021/05/02 06:47:59;;;;;;;10.87;9.77;;;16.30;90.40;24.00;98136.00;;;;5070939;28;20791;-75
2021/05/02 06:50:25;;;;;;;11.00;9.80;;;16.30;90.40;24.10;98142.00;;;;5035879;28;20600;-74
2021/05/02 06:52:51;;;;;;;13.50;10.87;;;16.30;90.40;24.00;98158.00;;;;5068603;28;20204;-74
2021/05/02 06:55:16;;;;;;;11.60;9.73;;;16.30;90.40;24.10;98159.00;;;;5086417;28;20177;-75
2021/05/02 06:57:42;;;;;;;11.00;9.33;;;16.30;90.40;24.00;98162.00;;;;5052075;28;20233;-74
2021/05/02 07:00:08;;;;;;;10.60;9.30;;;16.30;90.40;23.90;98184.00;;;;5052573;28;20189;-73
2021/05/02 07:02:34;;;;;;;10.87;8.13;;;16.30;90.40;24.00;98186.00;;;;5047799;28;20214;-74
2021/05/02 07:05:00;;;;;;;11.93;9.87;;;16.30;90.40;24.00;98189.00;;;;5066900;28;20500;-74
2021/05/02 07:07:28;;;;;;;10.70;8.67;;;16.30;90.40;24.10;98202.00;;;;5034000;28;20220;-75
2021/05/02 07:09:54;;;;;;;11.40;9.37;;;16.30;90.40;24.10;98222.00;;;;5048269;28;20186;-74
2021/05/02 07:12:21;;;;;;;11.23;9.17;;;16.30;90.40;24.10;98219.00;;;;5048505;28;20460;-74
2021/05/02 07:14:46;;;;;;;11.00;8.77;;;16.30;90.40;24.00;98232.00;;;;5048468;28;20443;-74
2021/05/02 07:17:13;;;;;;;10.90;8.97;;;16.30;90.40;24.00;98226.00;;;;5048268;28;20488;-73
2021/05/02 07:19:38;;;;;;;10.83;8.90;;;16.30;90.40;24.10;98223.00;;;;5014250;28;20236;-74
2021/05/02 07:22:06;;;;;;;10.50;9.07;;;16.30;90.40;24.00;98244.00;;;;5047717;28;20456;-75
2021/05/02 07:24:35;;;;;;;10.23;7.80;;;16.30;90.40;24.00;98256.00;;;;5031707;28;20178;-74
2021/05/02 07:27:01;;;;;;;10.07;8.03;;;16.30;90.40;24.20;98271.00;;;;5031577;28;20496;-74
2021/05/02 07:29:26;;;;;;;9.30;7.27;;;16.30;90.40;24.10;98265.00;;;;5048549;28;20439;-74
2021/05/02 07:31:52;;;;;;;9.53;7.80;;;16.30;90.40;24.10;98269.00;;;;5048027;28;20198;-74
2021/05/02 07:34:19;;;;;;;9.10;7.53;;;16.30;90.40;24.00;98261.00;;;;5047062;28;20182;-74
2021/05/02 07:36:45;;;;;;;9.10;7.20;;;16.30;90.40;24.10;98267.00;;;;5047963;28;20707;-73
2021/05/02 07:39:11;;;;;;;9.90;7.53;;;16.30;90.30;24.10;98275.00;;;;5031616;28;20502;-74
2021/05/02 07:41:36;;;;;;;10.80;7.57;;;16.30;90.30;24.00;98304.00;;;;5048123;28;20841;-74
2021/05/02 07:44:03;;;;;;;8.50;6.70;;;16.30;90.40;24.00;98327.00;;;;5031826;28;20232;-74
2021/05/02 07:46:28;;;;;;;7.60;6.27;;;16.30;90.40;24.10;98326.00;;;;5031767;28;20722;-74
2021/05/02 07:48:54;;;;;;;8.70;6.53;;;16.30;90.40;24.00;98327.00;;;;5048234;28;20421;-74
2021/05/02 07:51:20;;;;;;;8.90;6.20;;;16.30;90.40;24.20;98344.00;;;;5031802;28;20182;-75
2021/05/02 07:53:47;;;;;;;8.10;5.87;;;16.30;90.30;24.00;98358.00;;;;5049444;28;20232;-74
2021/05/02 07:56:14;;;;;;;7.40;5.50;;;16.30;90.30;24.10;98342.00;;;;5048236;28;20178;-73
2021/05/02 07:58:39;;;;;;;7.77;5.47;;;16.30;90.30;24.20;98346.00;;;;5031160;28;20832;-73
2021/05/02 08:01:05;;;;;;;7.53;5.70;;;16.30;90.20;24.30;98354.00;;;;5048197;28;20414;-74
2021/05/02 08:03:31;;;;;;;8.37;5.40;;;16.30;90.20;24.20;98347.00;;;;5048240;28;20198;-73
2021/05/02 08:05:57;;;;;;;7.40;5.60;;;16.30;90.20;24.10;98356.00;;;;5048066;28;20811;-74
2021/05/02 08:08:23;;;;;;;7.17;5.33;;;16.30;90.20;24.30;98356.00;;;;5031379;28;20205;-73
2021/05/02 08:10:49;;;;;;;8.07;6.10;;;16.30;90.20;24.10;98361.00;;;;5048671;28;20212;-73
2021/05/02 08:13:18;;;;;;;7.17;5.13;;;16.30;90.20;24.30;98370.00;;;;5046931;28;20484;-73
2021/05/02 08:15:45;;;;;;;7.13;4.90;;;16.30;90.20;24.30;98384.00;;;;5049664;28;20438;-73
2021/05/02 08:18:11;;;;;;;6.90;4.53;;;16.30;90.20;24.20;98368.00;;;;5031112;28;20509;-74
2021/05/02 08:20:36;;;;;;;6.97;4.80;;;16.30;90.20;24.20;98377.00;;;;5031467;28;20419;-74
2021/05/02 08:23:02;;;;;;;6.43;4.30;;;16.30;90.20;24.30;98387.00;;;;5049088;28;20457;-74
2021/05/02 08:25:28;;;;;;;5.93;4.27;;;16.30;90.20;24.30;98392.00;;;;5047574;28;20791;-73
2021/05/02 08:27:54;;;;;;;6.10;3.90;;;16.30;90.20;24.30;98391.00;;;;5046302;28;20353;-74
2021/05/02 08:30:20;;;;;;;5.97;3.80;;;16.30;90.10;24.40;98409.00;;;;5053406;28;20197;-74
2021/05/02 08:32:45;;;;;;;6.30;4.10;;;16.30;90.10;24.30;98407.00;;;;5036160;28;20577;-73
2021/05/02 08:35:12;;;;;;;6.50;3.70;;;16.30;90.10;24.20;98399.00;;;;5068906;28;20221;-74
2021/05/02 08:37:37;;;;;;;5.40;3.23;;;16.30;90.10;24.30;98411.00;;;;5016424;28;20736;-73
2021/05/02 08:40:05;;;;;;;6.13;3.77;;;16.20;90.40;24.20;98432.00;;;;5049846;28;20527;-73
2021/05/02 08:42:31;;;;;;;5.93;3.77;;;16.30;89.90;24.10;98430.00;;;;5050492;28;20782;-72
2021/05/02 08:44:56;;;;;;;5.37;3.40;;;16.30;89.90;24.10;98453.00;;;;5049997;28;20445;-73
2021/05/02 08:47:22;;;;;;;5.97;3.47;;;16.30;89.90;24.10;98457.00;;;;5051740;28;20690;-74
2021/05/02 08:49:48;;;;;;;5.97;3.37;;;16.30;89.90;24.20;98466.00;;;;5052550;28;20541;-73
2021/05/02 08:52:13;;;;;;;5.40;3.40;;;16.30;89.90;24.10;98469.00;;;;5050453;28;20573;-73
2021/05/02 08:54:40;;;;;;;5.20;2.90;;;16.30;89.90;24.10;98471.00;;;;5051290;28;20205;-73
2021/05/02 08:57:05;;;;;;;5.33;3.40;;;16.30;89.90;24.10;98477.00;;;;5051222;28;20282;-73
2021/05/02 08:59:31;;;;;;;5.23;3.17;;;16.30;89.90;24.20;98473.00;;;;5033678;28;20893;-73
2021/05/02 09:01:58;;;;;;;5.13;2.93;;;16.30;89.90;24.20;98483.00;;;;5050722;28;20439;-74
2021/05/02 09:04:24;;;;;;;6.93;2.97;;;16.30;89.90;24.20;98477.00;;;;5051113;28;20185;-73
2021/05/02 09:06:50;;;;;;;6.13;3.03;;;16.30;89.80;24.10;98482.00;;;;5050025;28;20826;-73
2021/05/02 09:09:16;;;;;;;5.20;2.93;;;16.30;89.60;24.10;98483.00;;;;5051637;28;20447;-73
2021/05/02 09:11:44;;;;;;;5.13;2.53;;;16.30;89.50;24.20;98488.00;;;;5017695;28;20602;-73
2021/05/02 09:14:29;;;;;;;4.40;2.50;;;16.30;89.50;24.20;98500.00;;;;5033122;28;20421;-73
2021/05/02 09:16:57;;;;;;;4.70;2.53;;;16.20;89.20;24.20;98520.00;;;;5050931;28;20479;-72
2021/05/02 09:19:32;;;;;;;5.17;2.53;;;16.30;89.30;24.20;98518.00;;;;5051799;28;21215;-74
2021/05/02 09:22:12;;;;;;;4.57;2.20;;;16.30;89.50;24.20;98542.00;;;;5050207;28;20419;-73
2021/05/02 09:24:37;;;;;;;4.50;2.40;;;16.20;89.10;24.10;98551.00;;;;5056090;28;21003;-73
2021/05/02 09:27:13;;;;;;;4.50;2.20;;;16.20;89.20;24.00;98566.00;;;;5070275;28;20532;-73
2021/05/02 09:29:42;;;;;;;5.13;2.23;;;16.20;89.20;24.10;98602.00;;;;5053353;28;20205;-73
2021/05/02 09:32:09;;;;;;;5.00;2.30;;;16.20;89.00;24.10;98579.00;;;;5070505;28;20448;-73
2021/05/02 09:34:35;;;;;;;5.37;2.63;;;16.30;89.10;24.10;98594.00;;;;5070588;28;20439;-74
2021/05/02 09:37:06;;;;;;;5.00;2.47;;;16.30;89.10;24.10;98588.00;;;;5069355;28;20470;-73
2021/05/02 09:39:56;;;;;;;4.20;1.90;;;16.30;89.00;24.20;98595.00;;;;5070424;28;20260;-73
2021/05/02 09:42:41;;;;;;;3.97;2.07;;;16.30;88.90;24.10;98604.00;;;;5069053;28;20505;-73
2021/05/02 09:45:11;;;;;;;4.03;1.97;;;16.20;88.80;24.20;98605.00;;;;5068952;28;20555;-74
2021/05/02 09:47:42;;;;;;;4.50;2.20;;;16.30;89.20;24.30;98600.00;;;;5037941;28;20434;-73
2021/05/02 09:50:09;;;;;;;4.60;2.30;;;16.30;88.90;24.20;98621.00;;;;5070390;28;20459;-73
2021/05/02 09:52:49;;;;;;;4.10;1.83;;;16.30;88.90;24.10;98628.00;;;;5068973;28;20459;-73
2021/05/02 09:55:30;;;;;;;4.00;1.90;;;16.30;88.90;24.20;98633.00;;;;5070266;28;20443;-74
2021/05/02 09:58:18;;;;;;;6.33;2.23;;;16.30;88.80;24.10;98636.00;;;;5070402;28;20460;-72
2021/05/02 10:00:51;;;;;;;4.00;1.77;;;16.30;88.70;24.00;98644.00;;;;5069774;28;20427;-73
2021/05/02 10:03:18;;;;;;;4.27;1.93;;;16.30;88.60;24.10;98644.00;;;;5071172;28;20484;-73
2021/05/02 10:06:15;;;;;;;4.40;1.70;;;16.30;88.60;24.20;98623.00;;;;5052549;28;20483;-73
2021/05/02 10:08:41;;;;;;;4.33;1.97;;;16.20;88.30;24.20;98650.00;;;;5036223;28;20466;-73
2021/05/02 10:11:08;;;;;;;3.93;1.67;;;16.30;88.40;24.30;98652.00;;;;5053187;28;20487;-73
2021/05/02 10:13:35;;;;;;;5.37;2.00;;;16.30;88.20;24.20;98666.00;;;;5068569;28;20228;-73
2021/05/02 10:16:01;;;;;;;3.70;1.70;;;16.30;88.20;24.20;98666.00;;;;5068957;28;20436;-73
2021/05/02 10:18:27;;;;;;;4.33;1.77;;;16.30;88.10;24.10;98677.00;;;;5069690;28;20496;-72
2021/05/02 10:20:53;;;;;;;4.10;1.67;;;16.20;88.00;24.00;98692.00;;;;5069141;28;20410;-73
2021/05/02 10:23:19;;;;;;;3.80;1.53;;;16.30;88.20;24.10;98692.00;;;;5067747;28;20699;-73
2021/05/02 10:25:47;;;;;;;4.00;1.80;;;16.30;88.10;24.10;98699.00;;;;5052888;28;20220;-72
2021/05/02 10:28:26;;;;;;;3.60;1.50;;;16.30;87.90;24.20;98712.00;;;;5069674;28;20434;-72
2021/05/02 10:30:54;;;;;;;3.70;1.60;;;16.30;88.00;24.10;98721.00;;;;5053204;28;20502;-72
2021/05/02 10:33:56;;;;;;;4.10;1.53;;;16.20;87.70;24.00;98735.00;;;;5069699;28;20459;-72
2021/05/02 10:36:22;;;;;;;4.03;1.63;;;16.30;88.00;24.00;98726.00;;;;5052421;28;20478;-72
2021/05/02 10:39:00;;;;;;;3.70;1.60;;;16.20;87.80;24.00;98725.00;;;;5052830;28;20935;-73
2021/05/02 10:41:37;;;;;;;3.53;1.57;;;16.20;87.70;24.00;98745.00;;;;5065680;28;20441;-72
2021/05/02 10:44:12;;;;;;;4.07;1.70;;;16.20;87.80;24.10;98765.00;;;;5083048;28;20478;-73
2021/05/02 10:46:45;;;;;;;4.77;2.37;;;16.20;87.60;24.00;98783.00;;;;5070714;28;20495;-72
2021/05/02 10:49:20;;;;;;;3.50;1.30;;;16.30;87.80;24.10;98770.00;;;;5068062;28;20911;-73
2021/05/02 10:51:53;;;;;;;4.00;1.60;;;16.30;87.80;23.80;98737.00;;;;5068783;28;20446;-73